sensor_id;sensor_type;location;lat;lon;timestamp;pressure;altitude;pressure_sealevel;temperature;humidity
42067;BME280;27734;47.028;28.820;2023-04-03T00:02:07;99570.61;;;9.01;100.00
42067;BME280;27734;47.028;28.820;2023-04-03T00:04:38;99574.93;;;9.00;100.00
42067;BME280;27734;47.028;28.820;2023-04-03T00:07:09;99565.33;;;8.99;100.00
42067;BME280;27734;47.028;28.820;2023-04-03T00:09:42;99561.84;;;9.00;100.00
42067;BME280;27734;47.028;28.820;2023-04-03T00:12:13;99565.38;;;9.01;100.00
42067;BME280;27734;47.028;28.820;2023-04-03T00:14:45;99567.08;;;9.00;100.00
42067;BME280;27734;47.028;28.820;2023-04-03T00:17:16;99567.98;;;9.01;100.00
42067;BME280;27734;47.028;28.820;2023-04-03T00:19:47;99569.73;;;9.02;100.00
42067;BME280;27734;47.028;28.820;2023-04-03T00:22:19;99574.97;;;9.02;100.00
42067;BME280;27734;47.028;28.820;2023-04-03T00:24:50;99580.25;;;9.04;100.00
42067;BME280;27734;47.028;28.820;2023-04-03T00:27:21;99567.98;;;9.01;100.00
42067;BME280;27734;47.028;28.820;2023-04-03T00:29:52;99564.47;;;9.00;100.00
42067;BME280;27734;47.028;28.820;2023-04-03T00:32:24;99573.19;;;8.99;100.00
42067;BME280;27734;47.028;28.820;2023-04-03T00:34:55;99577.47;;;8.97;100.00
42067;BME280;27734;47.028;28.820;2023-04-03T00:37:27;99572.19;;;8.96;100.00
42067;BME280;27734;47.028;28.820;2023-04-03T00:39:58;99571.27;;;8.94;100.00
42067;BME280;27734;47.028;28.820;2023-04-03T00:42:29;99579.95;;;8.91;100.00
42067;BME280;27734;47.028;28.820;2023-04-03T00:48:13;99581.56;;;8.88;100.00
42067;BME280;27734;47.028;28.820;2023-04-03T00:50:46;99581.52;;;8.86;100.00
42067;BME280;27734;47.028;28.820;2023-04-03T00:53:21;99591.07;;;8.84;100.00
42067;BME280;27734;47.028;28.820;2023-04-03T00:55:55;99584.92;;;8.82;100.00
42067;BME280;27734;47.028;28.820;2023-04-03T00:58:32;99584.88;;;8.80;100.00
42067;BME280;27734;47.028;28.820;2023-04-03T01:01:08;99592.69;;;8.79;100.00
42067;BME280;27734;47.028;28.820;2023-04-03T01:03:43;99586.55;;;8.78;100.00
42067;BME280;27734;47.028;28.820;2023-04-03T01:06:16;99587.41;;;8.77;100.00
42067;BME280;27734;47.028;28.820;2023-04-03T01:08:49;99587.36;;;8.76;100.00
42067;BME280;27734;47.028;28.820;2023-04-03T01:11:22;99588.23;;;8.76;100.00
42067;BME280;27734;47.028;28.820;2023-04-03T01:13:53;99584.75;;;8.76;100.00
42067;BME280;27734;47.028;28.820;2023-04-03T01:16:25;99585.58;;;8.75;100.00
42067;BME280;27734;47.028;28.820;2023-04-03T01:18:56;99590.81;;;8.75;100.00
42067;BME280;27734;47.028;28.820;2023-04-03T01:21:45;99591.59;;;8.72;100.00
42067;BME280;27734;47.028;28.820;2023-04-03T01:24:30;99595.08;;;8.71;100.00
42067;BME280;27734;47.028;28.820;2023-04-03T01:27:05;99602.02;;;8.71;100.00
42067;BME280;27734;47.028;28.820;2023-04-03T01:29:38;99596.73;;;8.69;100.00
42067;BME280;27734;47.028;28.820;2023-04-03T01:32:11;99606.28;;;8.67;100.00
42067;BME280;27734;47.028;28.820;2023-04-03T01:34:42;99598.44;;;8.67;100.00
42067;BME280;27734;47.028;28.820;2023-04-03T01:37:13;99601.88;;;8.66;100.00
42067;BME280;27734;47.028;28.820;2023-04-03T01:39:44;99619.27;;;8.64;100.00
42067;BME280;27734;47.028;28.820;2023-04-03T01:42:16;99608.77;;;8.62;100.00
42067;BME280;27734;47.028;28.820;2023-04-03T01:44:47;99614.78;;;8.60;100.00
42067;BME280;27734;47.028;28.820;2023-04-03T01:47:18;99612.98;;;8.57;100.00
42067;BME280;27734;47.028;28.820;2023-04-03T01:49:50;99618.08;;;8.53;100.00
42067;BME280;27734;47.028;28.820;2023-04-03T01:52:21;99618.86;;;8.50;100.00
42067;BME280;27734;47.028;28.820;2023-04-03T01:54:54;99613.58;;;8.49;100.00
42067;BME280;27734;47.028;28.820;2023-04-03T01:57:25;99623.08;;;8.45;100.00
42067;BME280;27734;47.028;28.820;2023-04-03T01:59:56;99628.17;;;8.42;100.00
42067;BME280;27734;47.028;28.820;2023-04-03T02:02:28;99627.98;;;8.36;100.00
42067;BME280;27734;47.028;28.820;2023-04-03T02:04:59;99632.25;;;8.32;100.00
42067;BME280;27734;47.028;28.820;2023-04-03T02:07:30;99630.41;;;8.30;100.00
42067;BME280;27734;47.028;28.820;2023-04-03T02:10:02;99639.89;;;8.26;100.00
42067;BME280;27734;47.028;28.820;2023-04-03T02:12:33;99644.98;;;8.21;100.00
42067;BME280;27734;47.028;28.820;2023-04-03T02:15:06;99641.31;;;8.16;100.00
42067;BME280;27734;47.028;28.820;2023-04-03T02:17:37;99637.72;;;8.13;100.00
42067;BME280;27734;47.028;28.820;2023-04-03T02:20:10;99635.02;;;8.09;100.00
42067;BME280;27734;47.028;28.820;2023-04-03T02:22:41;99644.48;;;8.06;100.00
42067;BME280;27734;47.028;28.820;2023-04-03T02:25:13;99640.81;;;8.01;100.00
42067;BME280;27734;47.028;28.820;2023-04-03T02:27:44;99659.00;;;7.98;100.00
42067;BME280;27734;47.028;28.820;2023-04-03T02:30:15;99643.23;;;7.95;100.00
42067;BME280;27734;47.028;28.820;2023-04-03T02:32:47;99645.74;;;7.91;100.00
42067;BME280;27734;47.028;28.820;2023-04-03T02:35:18;99652.66;;;7.89;100.00
42067;BME280;27734;47.028;28.820;2023-04-03T02:37:50;99649.94;;;7.86;100.00
42067;BME280;27734;47.028;28.820;2023-04-03T02:40:22;99657.67;;;7.83;100.00
42067;BME280;27734;47.028;28.820;2023-04-03T02:42:54;99654.13;;;7.81;100.00
42067;BME280;27734;47.028;28.820;2023-04-03T02:45:26;99657.52;;;7.79;100.00
42067;BME280;27734;47.028;28.820;2023-04-03T02:47:57;99653.16;;;7.78;100.00
42067;BME280;27734;47.028;28.820;2023-04-03T02:50:29;99662.64;;;7.76;100.00
42067;BME280;27734;47.028;28.820;2023-04-03T02:53:00;99659.16;;;7.75;100.00
42067;BME280;27734;47.028;28.820;2023-04-03T02:55:31;99668.62;;;7.71;100.00
42067;BME280;27734;47.028;28.820;2023-04-03T02:58:02;99653.72;;;7.69;100.00
42067;BME280;27734;47.028;28.820;2023-04-03T03:00:35;99672.72;;;7.65;100.00
42067;BME280;27734;47.028;28.820;2023-04-03T03:03:06;99659.61;;;7.63;100.00
42067;BME280;27734;47.028;28.820;2023-04-03T03:05:37;99659.50;;;7.60;100.00
42067;BME280;27734;47.028;28.820;2023-04-03T03:08:09;99672.51;;;7.59;100.00
42067;BME280;27734;47.028;28.820;2023-04-03T03:10:40;99668.09;;;7.56;100.00
42067;BME280;27734;47.028;28.820;2023-04-03T03:13:12;99673.20;;;7.53;100.00
42067;BME280;27734;47.028;28.820;2023-04-03T03:15:43;99672.19;;;7.49;100.00
42067;BME280;27734;47.028;28.820;2023-04-03T03:18:15;99675.61;;;7.47;100.00
42067;BME280;27734;47.028;28.820;2023-04-03T03:20:46;99681.65;;;7.46;100.00
42067;BME280;27734;47.028;28.820;2023-04-03T03:23:24;99683.27;;;7.42;100.00
42067;BME280;27734;47.028;28.820;2023-04-03T03:25:58;99682.36;;;7.42;100.00
42067;BME280;27734;47.028;28.820;2023-04-03T03:28:30;99690.99;;;7.39;100.00
42067;BME280;27734;47.028;28.820;2023-04-03T03:31:02;99691.81;;;7.38;100.00
42067;BME280;27734;47.028;28.820;2023-04-03T03:33:33;99691.77;;;7.36;100.00
42067;BME280;27734;47.028;28.820;2023-04-03T03:36:06;99694.31;;;7.35;100.00
42067;BME280;27734;47.028;28.820;2023-04-03T03:38:37;99700.34;;;7.32;100.00
42067;BME280;27734;47.028;28.820;2023-04-03T03:41:09;99702.03;;;7.32;100.00
42067;BME280;27734;47.028;28.820;2023-04-03T03:43:40;99705.45;;;7.29;100.00
42067;BME280;27734;47.028;28.820;2023-04-03T03:46:12;99701.88;;;7.27;100.00
42067;BME280;27734;47.028;28.820;2023-04-03T03:48:43;99710.55;;;7.26;100.00
42067;BME280;27734;47.028;28.820;2023-04-03T03:51:14;99704.37;;;7.24;100.00
42067;BME280;27734;47.028;28.820;2023-04-03T03:53:46;99708.77;;;7.25;100.00
42067;BME280;27734;47.028;28.820;2023-04-03T03:56:19;99706.09;;;7.24;100.00
42067;BME280;27734;47.028;28.820;2023-04-03T03:58:51;99718.33;;;7.25;100.00
42067;BME280;27734;47.028;28.820;2023-04-03T04:01:23;99715.77;;;7.26;100.00
42067;BME280;27734;47.028;28.820;2023-04-03T04:03:55;99713.98;;;7.25;100.00
42067;BME280;27734;47.028;28.820;2023-04-03T04:06:29;99718.33;;;7.25;100.00
42067;BME280;27734;47.028;28.820;2023-04-03T04:09:03;99726.09;;;7.23;100.00
42067;BME280;27734;47.028;28.820;2023-04-03T04:11:35;99733.02;;;7.23;100.00
42067;BME280;27734;47.028;28.820;2023-04-03T04:14:07;99731.26;;;7.22;100.00
42067;BME280;27734;47.028;28.820;2023-04-03T04:16:40;99730.41;;;7.23;100.00
42067;BME280;27734;47.028;28.820;2023-04-03T04:19:15;99734.80;;;7.24;100.00
42067;BME280;27734;47.028;28.820;2023-04-03T04:21:47;99739.97;;;7.22;100.00
42067;BME280;27734;47.028;28.820;2023-04-03T04:24:18;99741.70;;;7.22;100.00
42067;BME280;27734;47.028;28.820;2023-04-03T04:26:50;99740.84;;;7.23;100.00
42067;BME280;27734;47.028;28.820;2023-04-03T04:29:22;99743.45;;;7.23;100.00
42067;BME280;27734;47.028;28.820;2023-04-03T04:31:54;99749.53;;;7.22;100.00
42067;BME280;27734;47.028;28.820;2023-04-03T04:34:25;99749.53;;;7.22;100.00
42067;BME280;27734;47.028;28.820;2023-04-03T04:36:56;99749.58;;;7.23;100.00
42067;BME280;27734;47.028;28.820;2023-04-03T04:39:28;99754.86;;;7.25;100.00
42067;BME280;27734;47.028;28.820;2023-04-03T04:42:00;99752.19;;;7.23;100.00
42067;BME280;27734;47.028;28.820;2023-04-03T04:44:33;99754.74;;;7.22;100.00
42067;BME280;27734;47.028;28.820;2023-04-03T04:47:04;99758.17;;;7.20;100.00
42067;BME280;27734;47.028;28.820;2023-04-03T04:49:35;99778.17;;;7.20;100.00
42067;BME280;27734;47.028;28.820;2023-04-03T04:52:07;99767.62;;;7.17;100.00
42067;BME280;27734;47.028;28.820;2023-04-03T04:54:39;99778.00;;;7.15;100.00
42067;BME280;27734;47.028;28.820;2023-04-03T04:57:10;99772.72;;;7.14;100.00
42067;BME280;27734;47.028;28.820;2023-04-03T04:59:42;99772.66;;;7.12;100.00
42067;BME280;27734;47.028;28.820;2023-04-03T05:02:14;99774.36;;;7.12;100.00
42067;BME280;27734;47.028;28.820;2023-04-03T05:04:46;99775.27;;;7.12;100.00
42067;BME280;27734;47.028;28.820;2023-04-03T05:07:22;99777.09;;;7.15;100.00
42067;BME280;27734;47.028;28.820;2023-04-03T05:09:54;99775.39;;;7.15;100.00
42067;BME280;27734;47.028;28.820;2023-04-03T05:12:25;99784.97;;;7.16;100.00
42067;BME280;27734;47.028;28.820;2023-04-03T05:15:00;99778.94;;;7.17;100.00
42067;BME280;27734;47.028;28.820;2023-04-03T05:17:32;99779.92;;;7.21;100.00
42067;BME280;27734;47.028;28.820;2023-04-03T05:20:05;99782.59;;;7.23;100.00
42067;BME280;27734;47.028;28.820;2023-04-03T05:22:37;99787.92;;;7.26;100.00
42067;BME280;27734;47.028;28.820;2023-04-03T05:25:11;99792.33;;;7.27;100.00
42067;BME280;27734;47.028;28.820;2023-04-03T05:27:43;99796.73;;;7.28;100.00
42067;BME280;27734;47.028;28.820;2023-04-03T05:30:16;99789.72;;;7.27;100.00
42067;BME280;27734;47.028;28.820;2023-04-03T05:32:48;99788.90;;;7.28;100.00
42067;BME280;27734;47.028;28.820;2023-04-03T05:35:22;99795.05;;;7.30;100.00
42067;BME280;27734;47.028;28.820;2023-04-03T05:37:56;99796.91;;;7.32;100.00
42067;BME280;27734;47.028;28.820;2023-04-03T05:40:28;99800.39;;;7.33;100.00
42067;BME280;27734;47.028;28.820;2023-04-03T05:43:04;99804.05;;;7.38;100.00
42067;BME280;27734;47.028;28.820;2023-04-03T05:46:01;99811.88;;;7.38;100.00
42067;BME280;27734;47.028;28.820;2023-04-03T05:48:36;99804.93;;;7.38;100.00
42067;BME280;27734;47.028;28.820;2023-04-03T05:51:09;99812.76;;;7.38;100.00
42067;BME280;27734;47.028;28.820;2023-04-03T05:53:48;99808.45;;;7.39;100.00
42067;BME280;27734;47.028;28.820;2023-04-03T05:56:23;99819.83;;;7.41;100.00
42067;BME280;27734;47.028;28.820;2023-04-03T05:58:55;99810.27;;;7.42;100.00
42067;BME280;27734;47.028;28.820;2023-04-03T06:01:28;99817.45;;;7.47;100.00
42067;BME280;27734;47.028;28.820;2023-04-03T06:04:03;99818.37;;;7.49;100.00
42067;BME280;27734;47.028;28.820;2023-04-03T06:06:49;99820.11;;;7.49;100.00
42067;BME280;27734;47.028;28.820;2023-04-03T06:09:27;99818.27;;;7.46;100.00
42067;BME280;27734;47.028;28.820;2023-04-03T06:12:00;99839.03;;;7.43;100.00
42067;BME280;27734;47.028;28.820;2023-04-03T06:14:32;99832.82;;;7.40;100.00
42067;BME280;27734;47.028;28.820;2023-04-03T06:17:05;99833.61;;;7.37;100.00
42067;BME280;27734;47.028;28.820;2023-04-03T06:19:40;99835.31;;;7.36;100.00
42067;BME280;27734;47.028;28.820;2023-04-03T06:22:15;99831.83;;;7.36;100.00
42067;BME280;27734;47.028;28.820;2023-04-03T06:24:59;99831.00;;;7.37;100.00
42067;BME280;27734;47.028;28.820;2023-04-03T06:27:34;99836.25;;;7.38;100.00
42067;BME280;27734;47.028;28.820;2023-04-03T06:30:11;99842.44;;;7.41;100.00
42067;BME280;27734;47.028;28.820;2023-04-03T06:32:46;99847.72;;;7.42;100.00
42067;BME280;27734;47.028;28.820;2023-04-03T06:35:18;99850.33;;;7.42;100.00
42067;BME280;27734;47.028;28.820;2023-04-03T06:37:51;99858.16;;;7.42;100.00
42067;BME280;27734;47.028;28.820;2023-04-03T06:40:24;99851.15;;;7.41;100.00
42067;BME280;27734;47.028;28.820;2023-04-03T06:42:58;99853.76;;;7.41;100.00
42067;BME280;27734;47.028;28.820;2023-04-03T06:45:30;99858.16;;;7.42;100.00
42067;BME280;27734;47.028;28.820;2023-04-03T06:48:01;99859.16;;;7.46;100.00
42067;BME280;27734;47.028;28.820;2023-04-03T06:50:36;99870.59;;;7.49;100.00
42067;BME280;27734;47.028;28.820;2023-04-03T06:53:08;99870.47;;;7.46;100.00
42067;BME280;27734;47.028;28.820;2023-04-03T06:55:40;99875.70;;;7.46;100.00
42067;BME280;27734;47.028;28.820;2023-04-03T06:58:14;99886.02;;;7.43;100.00
42067;BME280;27734;47.028;28.820;2023-04-03T07:01:01;99883.29;;;7.40;100.00
42067;BME280;27734;47.028;28.820;2023-04-03T07:03:35;99884.14;;;7.39;100.00
42067;BME280;27734;47.028;28.820;2023-04-03T07:06:09;99897.02;;;7.34;100.00
42067;BME280;27734;47.028;28.820;2023-04-03T07:08:46;99898.69;;;7.32;100.00
42067;BME280;27734;47.028;28.820;2023-04-03T07:11:18;99892.55;;;7.32;100.00
42067;BME280;27734;47.028;28.820;2023-04-03T07:13:54;99898.56;;;7.29;100.00
42067;BME280;27734;47.028;28.820;2023-04-03T07:16:28;99908.09;;;7.29;100.00
42067;BME280;27734;47.028;28.820;2023-04-03T07:19:09;99909.89;;;7.30;100.00
42067;BME280;27734;47.028;28.820;2023-04-03T07:22:03;99918.53;;;7.29;100.00
42067;BME280;27734;47.028;28.820;2023-04-03T07:24:43;99916.66;;;7.25;100.00
42067;BME280;27734;47.028;28.820;2023-04-03T07:27:19;99930.58;;;7.25;100.00
42067;BME280;27734;47.028;28.820;2023-04-03T07:29:53;99918.29;;;7.23;100.00
42067;BME280;27734;47.028;28.820;2023-04-03T07:32:27;99933.13;;;7.24;100.00
42067;BME280;27734;47.028;28.820;2023-04-03T07:34:58;99923.51;;;7.23;100.00
42067;BME280;27734;47.028;28.820;2023-04-03T07:37:30;99932.19;;;7.22;100.00
42067;BME280;27734;47.028;28.820;2023-04-03T07:40:02;99935.73;;;7.24;100.00
42067;BME280;27734;47.028;28.820;2023-04-03T07:42:34;99935.73;;;7.24;100.00
42067;BME280;27734;47.028;28.820;2023-04-03T07:45:07;99941.08;;;7.27;100.00
42067;BME280;27734;47.028;28.820;2023-04-03T07:47:39;99938.47;;;7.27;100.00
42067;BME280;27734;47.028;28.820;2023-04-03T07:50:11;99932.55;;;7.31;100.00
42067;BME280;27734;47.028;28.820;2023-04-03T07:52:43;99937.11;;;7.36;100.00
42067;BME280;27734;47.028;28.820;2023-04-03T07:55:16;99945.12;;;7.41;100.00
42067;BME280;27734;47.028;28.820;2023-04-03T07:57:50;99943.57;;;7.46;100.00
42067;BME280;27734;47.028;28.820;2023-04-03T08:00:24;99942.05;;;7.51;100.00
42067;BME280;27734;47.028;28.820;2023-04-03T08:02:57;99950.13;;;7.58;100.00
42067;BME280;27734;47.028;28.820;2023-04-03T08:05:30;99946.84;;;7.63;100.00
42067;BME280;27734;47.028;28.820;2023-04-03T08:08:08;99950.36;;;7.64;100.00
42067;BME280;27734;47.028;28.820;2023-04-03T08:10:40;99960.75;;;7.62;100.00
42067;BME280;27734;47.028;28.820;2023-04-03T08:13:24;99964.94;;;7.59;100.00
42067;BME280;27734;47.028;28.820;2023-04-03T08:16:15;99967.61;;;7.60;100.00
42067;BME280;27734;47.028;28.820;2023-04-03T08:18:51;99980.84;;;7.65;100.00
42067;BME280;27734;47.028;28.820;2023-04-03T08:21:31;99972.02;;;7.61;100.00
42067;BME280;27734;47.028;28.820;2023-04-03T08:24:23;99984.43;;;7.67;100.00
42067;BME280;27734;47.028;28.820;2023-04-03T08:27:04;99988.80;;;7.68;100.00
42067;BME280;27734;47.028;28.820;2023-04-03T08:29:45;99991.47;;;7.69;100.00
42067;BME280;27734;47.028;28.820;2023-04-03T08:32:26;99999.37;;;7.71;100.00
42067;BME280;27734;47.028;28.820;2023-04-03T08:35:13;100011.84;;;7.78;100.00
42067;BME280;27734;47.028;28.820;2023-04-03T08:38:01;100008.36;;;7.78;100.00
42067;BME280;27734;47.028;28.820;2023-04-03T08:40:40;100013.70;;;7.81;100.00
42067;BME280;27734;47.028;28.820;2023-04-03T08:43:30;100001.64;;;7.84;100.00
42067;BME280;27734;47.028;28.820;2023-04-03T08:46:08;100018.25;;;7.86;100.00
42067;BME280;27734;47.028;28.820;2023-04-03T08:48:49;100005.02;;;7.82;100.00
42067;BME280;27734;47.028;28.820;2023-04-03T08:51:27;100019.48;;;7.96;100.00
42067;BME280;27734;47.028;28.820;2023-04-03T08:54:13;100022.95;;;7.95;100.00
42067;BME280;27734;47.028;28.820;2023-04-03T08:56:52;100023.95;;;7.99;100.00
42067;BME280;27734;47.028;28.820;2023-04-03T08:59:40;100029.47;;;8.06;100.00
42067;BME280;27734;47.028;28.820;2023-04-03T09:02:25;100024.42;;;8.11;100.00
42067;BME280;27734;47.028;28.820;2023-04-03T09:05:00;100030.59;;;8.13;100.00
42067;BME280;27734;47.028;28.820;2023-04-03T09:07:42;100035.11;;;8.17;100.00
42067;BME280;27734;47.028;28.820;2023-04-03T09:10:15;100042.36;;;8.24;100.00
42067;BME280;27734;47.028;28.820;2023-04-03T09:12:57;100049.58;;;8.32;100.00
42067;BME280;27734;47.028;28.820;2023-04-03T09:15:33;100060.33;;;8.39;100.00
42067;BME280;27734;47.028;28.820;2023-04-03T09:18:10;100058.68;;;8.41;100.00
42067;BME280;27734;47.028;28.820;2023-04-03T09:20:59;100051.81;;;8.43;100.00
42067;BME280;27734;47.028;28.820;2023-04-03T09:24:14;100057.09;;;8.45;100.00
42067;BME280;27734;47.028;28.820;2023-04-03T09:26:54;100063.31;;;8.49;100.00
42067;BME280;27734;47.028;28.820;2023-04-03T09:29:31;100057.20;;;8.48;99.92
42067;BME280;27734;47.028;28.820;2023-04-03T09:32:21;100074.77;;;8.52;100.00
42067;BME280;27734;47.028;28.820;2023-04-03T09:34:56;100070.73;;;8.60;100.00
42067;BME280;27734;47.028;28.820;2023-04-03T09:37:42;100085.63;;;8.63;99.61
42067;BME280;27734;47.028;28.820;2023-04-03T09:40:35;100086.55;;;8.63;100.00
42067;BME280;27734;47.028;28.820;2023-04-03T09:43:30;100092.48;;;8.59;100.00
42067;BME280;27734;47.028;28.820;2023-04-03T09:46:33;100087.08;;;8.55;99.58
42067;BME280;27734;47.028;28.820;2023-04-03T09:49:25;100097.37;;;8.50;99.58
42067;BME280;27734;47.028;28.820;2023-04-03T09:52:20;100103.25;;;8.44;99.27
42067;BME280;27734;47.028;28.820;2023-04-03T09:54:54;100105.92;;;8.46;100.00
42067;BME280;27734;47.028;28.820;2023-04-03T09:57:40;100105.16;;;8.49;99.52
42067;BME280;27734;47.028;28.820;2023-04-03T10:00:23;100102.59;;;8.50;99.05
42067;BME280;27734;47.028;28.820;2023-04-03T10:02:58;100115.79;;;8.53;99.18
42067;BME280;27734;47.028;28.820;2023-04-03T10:05:34;100111.37;;;8.52;99.39
42067;BME280;27734;47.028;28.820;2023-04-03T10:08:21;100115.79;;;8.53;99.38
42067;BME280;27734;47.028;28.820;2023-04-03T10:11:14;100118.41;;;8.53;98.85
42067;BME280;27734;47.028;28.820;2023-04-03T10:13:55;100116.84;;;8.58;99.46
42067;BME280;27734;47.028;28.820;2023-04-03T10:16:35;100111.84;;;8.64;98.87
42067;BME280;27734;47.028;28.820;2023-04-03T10:19:41;100128.39;;;8.63;99.07
42067;BME280;27734;47.028;28.820;2023-04-03T10:22:40;100133.33;;;8.56;97.35
42067;BME280;27734;47.028;28.820;2023-04-03T10:25:43;100133.16;;;8.51;97.46
42067;BME280;27734;47.028;28.820;2023-04-03T10:29:20;100143.73;;;8.54;98.06
42067;BME280;27734;47.028;28.820;2023-04-03T10:36:11;100154.61;;;8.65;97.31
42067;BME280;27734;47.028;28.820;2023-04-03T10:38:59;100153.58;;;8.61;96.90
42067;BME280;27734;47.028;28.820;2023-04-03T10:41:55;100155.48;;;8.66;98.80
42067;BME280;27734;47.028;28.820;2023-04-03T10:44:55;100161.06;;;8.75;97.37
42067;BME280;27734;47.028;28.820;2023-04-03T10:47:37;100155.84;;;8.75;96.53
42067;BME280;27734;47.028;28.820;2023-04-03T10:50:29;100164.73;;;8.80;96.22
42067;BME280;27734;47.028;28.820;2023-04-03T10:53:11;100153.67;;;8.87;96.07
42067;BME280;27734;47.028;28.820;2023-04-03T10:55:50;100159.95;;;8.92;95.70
42067;BME280;27734;47.028;28.820;2023-04-03T10:58:34;100164.08;;;8.86;93.79
42067;BME280;27734;47.028;28.820;2023-04-03T11:01:14;100168.27;;;8.80;93.00
42067;BME280;27734;47.028;28.820;2023-04-03T11:03:52;100158.73;;;8.83;94.51
42067;BME280;27734;47.028;28.820;2023-04-03T11:06:34;100159.84;;;8.89;94.39
42067;BME280;27734;47.028;28.820;2023-04-03T11:09:18;100156.69;;;8.98;92.69
42067;BME280;27734;47.028;28.820;2023-04-03T11:11:55;100148.31;;;9.08;93.91
42067;BME280;27734;47.028;28.820;2023-04-03T11:14:31;100161.84;;;9.21;94.58
42067;BME280;27734;47.028;28.820;2023-04-03T11:17:08;100163.80;;;9.26;93.93
42067;BME280;27734;47.028;28.820;2023-04-03T11:19:47;100168.22;;;9.27;91.63
42067;BME280;27734;47.028;28.820;2023-04-03T11:22:25;100154.48;;;9.34;91.12
42067;BME280;27734;47.028;28.820;2023-04-03T11:25:04;100174.88;;;9.43;92.34
42067;BME280;27734;47.028;28.820;2023-04-03T11:27:43;100181.69;;;9.38;89.01
42067;BME280;27734;47.028;28.820;2023-04-03T11:30:30;100179.95;;;9.39;93.39
42067;BME280;27734;47.028;28.820;2023-04-03T11:33:25;100186.88;;;9.37;90.53
42067;BME280;27734;47.028;28.820;2023-04-03T11:36:05;100173.45;;;9.27;90.05
42067;BME280;27734;47.028;28.820;2023-04-03T11:38:43;100174.05;;;9.20;90.67
42067;BME280;27734;47.028;28.820;2023-04-03T11:41:17;100173.61;;;9.08;90.28
42067;BME280;27734;47.028;28.820;2023-04-03T11:44:02;100174.88;;;9.19;91.50
42067;BME280;27734;47.028;28.820;2023-04-03T11:46:59;100168.93;;;9.23;89.48
42067;BME280;27734;47.028;28.820;2023-04-03T11:49:55;100165.43;;;9.23;91.07
42067;BME280;27734;47.028;28.820;2023-04-03T11:53:02;100169.04;;;9.26;90.66
42067;BME280;27734;47.028;28.820;2023-04-03T11:55:55;100169.31;;;9.34;90.09
42067;BME280;27734;47.028;28.820;2023-04-03T11:58:28;100169.86;;;9.25;87.56
42067;BME280;27734;47.028;28.820;2023-04-03T12:01:09;100158.45;;;9.23;88.57
42067;BME280;27734;47.028;28.820;2023-04-03T12:04:07;100145.37;;;9.23;90.12
42067;BME280;27734;47.028;28.820;2023-04-03T12:10:18;100148.70;;;9.19;88.14
42067;BME280;27734;47.028;28.820;2023-04-03T12:13:00;100147.77;;;9.17;89.20
42067;BME280;27734;47.028;28.820;2023-04-03T12:15:52;100138.23;;;9.19;89.12
42067;BME280;27734;47.028;28.820;2023-04-03T12:18:59;100139.20;;;9.21;88.74
42067;BME280;27734;47.028;28.820;2023-04-03T12:24:41;100148.48;;;9.13;88.04
42067;BME280;27734;47.028;28.820;2023-04-03T12:27:30;100151.05;;;9.11;88.88
42067;BME280;27734;47.028;28.820;2023-04-03T12:30:13;100163.25;;;9.11;87.52
42067;BME280;27734;47.028;28.820;2023-04-03T12:33:20;100151.95;;;9.12;87.62
42067;BME280;27734;47.028;28.820;2023-04-03T12:36:03;100149.50;;;9.16;85.98
42067;BME280;27734;47.028;28.820;2023-04-03T12:38:55;100149.35;;;9.38;87.33
42067;BME280;27734;47.028;28.820;2023-04-03T12:41:38;100157.23;;;9.63;86.94
42067;BME280;27734;47.028;28.820;2023-04-03T12:44:37;100155.70;;;9.70;87.25
42067;BME280;27734;47.028;28.820;2023-04-03T12:47:24;100173.05;;;9.66;85.53
42067;BME280;27734;47.028;28.820;2023-04-03T12:50:02;100170.95;;;9.56;85.23
42067;BME280;27734;47.028;28.820;2023-04-03T12:52:46;100164.67;;;9.51;86.05
42067;BME280;27734;47.028;28.820;2023-04-03T12:55:23;100159.64;;;9.57;86.93
42067;BME280;27734;47.028;28.820;2023-04-03T12:57:57;100149.22;;;9.59;85.62
42067;BME280;27734;47.028;28.820;2023-04-03T13:00:35;100155.95;;;9.52;86.31
42067;BME280;27734;47.028;28.820;2023-04-03T13:03:23;100153.28;;;9.50;86.28
42067;BME280;27734;47.028;28.820;2023-04-03T13:06:06;100162.50;;;9.39;85.89
42067;BME280;27734;47.028;28.820;2023-04-03T13:08:49;100173.45;;;9.27;84.39
42067;BME280;27734;47.028;28.820;2023-04-03T13:11:33;100168.82;;;9.20;86.18
42067;BME280;27734;47.028;28.820;2023-04-03T13:14:18;100172.43;;;9.24;86.72
42067;BME280;27734;47.028;28.820;2023-04-03T13:16:56;100177.39;;;9.16;85.49
42067;BME280;27734;47.028;28.820;2023-04-03T13:19:29;100179.67;;;9.07;84.89
42067;BME280;27734;47.028;28.820;2023-04-03T13:22:10;100190.88;;;9.03;85.12
42067;BME280;27734;47.028;28.820;2023-04-03T13:24:59;100177.52;;;8.95;85.02
42067;BME280;27734;47.028;28.820;2023-04-03T13:27:34;100182.80;;;8.96;85.04
42067;BME280;27734;47.028;28.820;2023-04-03T13:30:23;100181.89;;;8.96;85.62
42067;BME280;27734;47.028;28.820;2023-04-03T13:33:27;100175.77;;;8.95;84.23
42067;BME280;27734;47.028;28.820;2023-04-03T13:36:06;100169.60;;;8.93;85.83
42067;BME280;27734;47.028;28.820;2023-04-03T13:38:46;100190.42;;;8.90;84.74
42067;BME280;27734;47.028;28.820;2023-04-03T13:41:32;100196.48;;;8.89;85.77
42067;BME280;27734;47.028;28.820;2023-04-03T13:44:28;100197.45;;;8.91;85.53
42067;BME280;27734;47.028;28.820;2023-04-03T13:47:17;100209.16;;;8.78;84.50
42067;BME280;27734;47.028;28.820;2023-04-03T13:50:01;100201.92;;;8.71;85.14
42067;BME280;27734;47.028;28.820;2023-04-03T13:52:38;100198.52;;;8.74;86.55
42067;BME280;27734;47.028;28.820;2023-04-03T13:55:22;100195.89;;;8.74;86.69
42067;BME280;27734;47.028;28.820;2023-04-03T13:57:57;100191.52;;;8.73;86.72
42067;BME280;27734;47.028;28.820;2023-04-03T14:00:36;100193.34;;;8.75;87.02